createdAt,value
2022-08-22T00:01:10.750Z,53.95
2022-08-22T00:02:59.130Z,53.57
2022-08-22T00:03:44.086Z,53.77
2022-08-22T00:06:16.336Z,53.98
2022-08-22T00:08:51.095Z,54.10
2022-08-22T00:11:25.700Z,53.88
2022-08-22T00:14:01.368Z,53.79
2022-08-22T00:16:34.777Z,53.84
2022-08-22T00:19:07.366Z,54.03
2022-08-22T00:21:39.772Z,53.86
2022-08-22T00:24:14.657Z,53.83
2022-08-22T00:26:46.529Z,53.87
2022-08-22T00:29:16.377Z,53.89
2022-08-22T00:31:48.743Z,53.96
2022-08-22T00:34:18.463Z,53.76
2022-08-22T00:36:48.208Z,53.87
2022-08-22T00:39:18.443Z,54.01
2022-08-22T00:42:15.759Z,53.95
2022-08-22T00:45:18.460Z,54.07
2022-08-22T00:47:52.953Z,54.25
2022-08-22T00:50:30.775Z,54.16
2022-08-22T00:53:12.801Z,53.99
2022-08-22T00:55:52.424Z,54.10
2022-08-22T00:58:35.391Z,53.89
2022-08-22T01:01:06.913Z,53.84
2022-08-22T01:03:47.803Z,53.97
2022-08-22T01:06:23.517Z,54.21
2022-08-22T01:09:04.036Z,54.25
2022-08-22T01:11:52.140Z,54.35
2022-08-22T01:14:34.020Z,54.54
2022-08-22T01:17:32.456Z,54.36
2022-08-22T01:20:36.416Z,54.46
2022-08-22T01:23:31.967Z,54.66
2022-08-22T01:26:47.742Z,54.73
2022-08-22T01:29:51.829Z,54.77
2022-08-22T01:32:56.799Z,54.78
2022-08-22T01:35:49.444Z,54.75
2022-08-22T01:38:53.674Z,54.70
2022-08-22T01:41:43.930Z,55.08
2022-08-22T01:44:29.960Z,54.87
2022-08-22T01:47:00.029Z,55.05
2022-08-22T01:49:30.783Z,54.99
2022-08-22T01:52:03.389Z,54.87
2022-08-22T01:54:37.081Z,54.87
2022-08-22T01:57:08.858Z,55.01
2022-08-22T01:59:42.584Z,54.80
2022-08-22T02:02:32.333Z,54.96
2022-08-22T02:05:05.521Z,55.05
2022-08-22T02:07:41.063Z,54.86
2022-08-22T02:10:12.605Z,54.85
2022-08-22T02:12:45.285Z,54.83
2022-08-22T02:15:20.857Z,54.89
2022-08-22T02:18:11.104Z,54.80
2022-08-22T02:20:42.339Z,55.01
2022-08-22T02:23:25.908Z,54.96
2022-08-22T02:25:56.213Z,54.77
2022-08-22T02:28:32.682Z,54.87
2022-08-22T02:31:05.253Z,54.66
2022-08-22T02:33:36.111Z,54.61
2022-08-22T02:36:05.414Z,54.65
2022-08-22T02:38:38.516Z,54.65
2022-08-22T02:41:11.558Z,54.58
2022-08-22T02:43:45.372Z,54.63
2022-08-22T02:46:22.564Z,54.64
2022-08-22T02:48:56.137Z,54.72
2022-08-22T02:51:29.524Z,54.73
2022-08-22T02:54:03.416Z,54.82
2022-08-22T02:56:34.856Z,54.60
2022-08-22T02:59:14.782Z,54.76
2022-08-22T03:01:43.844Z,54.79
2022-08-22T03:04:25.351Z,54.90
2022-08-22T03:07:09.711Z,54.91
2022-08-22T03:09:42.232Z,54.81
2022-08-22T03:12:15.277Z,54.81
2022-08-22T03:14:45.806Z,54.90
2022-08-22T03:17:16.561Z,54.73
2022-08-22T03:19:52.541Z,54.89
2022-08-22T03:22:25.150Z,54.99
2022-08-22T03:24:56.899Z,55.09
2022-08-22T03:27:32.819Z,55.19
2022-08-22T03:30:02.796Z,55.08
2022-08-22T03:32:49.316Z,55.25
2022-08-22T03:35:28.268Z,55.18
2022-08-22T03:37:58.680Z,55.17
2022-08-22T03:40:31.704Z,55.30
2022-08-22T03:43:23.865Z,55.41
2022-08-22T03:46:14.024Z,55.38
2022-08-22T03:49:25.019Z,55.21
2022-08-22T03:52:02.265Z,55.38
2022-08-22T03:54:57.650Z,55.52
2022-08-22T03:57:48.846Z,55.34
2022-08-22T04:00:43.115Z,55.66
2022-08-22T04:03:24.156Z,55.75
2022-08-22T04:06:18.319Z,55.62
2022-08-22T04:09:02.847Z,55.90
2022-08-22T04:12:08.738Z,55.76
2022-08-22T04:14:59.681Z,55.94
2022-08-22T04:18:04.254Z,55.78
2022-08-22T04:20:56.707Z,55.94
2022-08-22T04:23:48.071Z,55.82
2022-08-22T04:26:18.023Z,56.01
2022-08-22T04:28:48.064Z,56.18
2022-08-22T04:31:19.466Z,55.96
2022-08-22T04:33:48.838Z,56.01
2022-08-22T04:36:19.019Z,55.98
2022-08-22T04:38:49.725Z,56.07
2022-08-22T04:41:20.332Z,55.87
2022-08-22T04:43:50.264Z,55.92
2022-08-22T04:46:24.815Z,56.25
2022-08-22T04:49:06.578Z,56.23
2022-08-22T04:51:36.542Z,56.05
2022-08-22T04:54:40.846Z,56.00
2022-08-22T04:57:17.722Z,56.15
2022-08-22T04:59:45.785Z,56.33
2022-08-22T05:02:22.996Z,56.37
2022-08-22T05:04:52.694Z,56.23
2022-08-22T05:07:22.133Z,56.32
2022-08-22T05:09:51.797Z,56.41
2022-08-22T05:12:23.633Z,56.51
2022-08-22T05:14:54.397Z,56.36
2022-08-22T05:17:25.825Z,56.42
2022-08-22T05:19:55.722Z,56.36
2022-08-22T05:22:25.608Z,56.42
2022-08-22T05:24:54.815Z,56.48
2022-08-22T05:27:24.052Z,56.64
2022-08-22T05:29:53.872Z,56.67
2022-08-22T05:32:26.020Z,56.71
2022-08-22T05:34:55.245Z,56.80
2022-08-22T05:37:25.590Z,57.12
2022-08-22T05:39:55.515Z,57.24
2022-08-22T05:42:26.085Z,57.46
2022-08-22T05:44:54.065Z,57.34
2022-08-22T05:47:24.695Z,57.39
2022-08-22T05:49:58.613Z,57.44
2022-08-22T05:52:34.770Z,57.35
2022-08-22T05:55:04.873Z,57.31
2022-08-22T05:57:34.797Z,57.52
2022-08-22T06:00:06.273Z,57.67
2022-08-22T06:02:46.814Z,57.68
2022-08-22T06:05:14.901Z,57.94
2022-08-22T06:07:44.413Z,58.12
2022-08-22T06:10:23.493Z,58.05
2022-08-22T06:12:55.696Z,58.21
2022-08-22T06:15:29.185Z,58.24
2022-08-22T06:18:03.898Z,58.45
2022-08-22T06:20:34.740Z,58.52
2022-08-22T06:23:03.114Z,58.78
2022-08-22T06:25:32.358Z,59.00
2022-08-22T06:28:00.833Z,59.05
2022-08-22T06:30:29.025Z,59.11
2022-08-22T06:33:01.203Z,59.40
2022-08-22T06:35:51.561Z,59.44
2022-08-22T06:38:20.253Z,59.61
2022-08-22T06:40:48.447Z,59.45
2022-08-22T06:43:16.563Z,59.64
2022-08-22T06:45:44.557Z,59.69
2022-08-22T06:48:17.226Z,59.66
2022-08-22T06:50:45.876Z,59.58
2022-08-22T06:53:15.138Z,59.76
2022-08-22T06:55:47.600Z,59.81
2022-08-22T06:58:16.873Z,59.63
2022-08-22T07:00:49.765Z,59.61
2022-08-22T07:03:31.920Z,59.62
2022-08-22T07:05:59.925Z,59.67
2022-08-22T07:08:29.813Z,59.62
2022-08-22T07:13:26.128Z,59.64
2022-08-22T07:15:56.338Z,59.65
2022-08-22T07:18:30.458Z,59.71
2022-08-22T07:21:04.592Z,59.72
2022-08-22T07:23:35.106Z,59.53
2022-08-22T07:26:16.284Z,59.64
2022-08-22T07:28:51.407Z,59.63
2022-08-22T07:31:31.910Z,59.62
2022-08-22T07:34:05.047Z,59.67
2022-08-22T07:36:44.756Z,59.73
2022-08-22T07:39:37.739Z,59.70
2022-08-22T07:42:11.989Z,59.74
2022-08-22T07:45:10.654Z,59.59
2022-08-22T07:47:56.324Z,59.63
2022-08-22T07:50:32.549Z,59.48
2022-08-22T07:53:04.958Z,59.39
2022-08-22T07:55:32.966Z,59.50
2022-08-22T07:58:10.661Z,59.46
2022-08-22T08:00:42.890Z,59.60
2022-08-22T08:03:11.330Z,59.34
2022-08-22T08:05:43.377Z,59.46
2022-08-22T08:08:15.778Z,59.58
2022-08-22T08:10:44.020Z,59.38
2022-08-22T08:13:18.397Z,59.47
2022-08-22T08:15:46.598Z,59.51
2022-08-22T08:18:21.817Z,59.51
2022-08-22T08:20:52.513Z,59.29
2022-08-22T08:23:23.386Z,59.34
2022-08-22T08:25:56.813Z,59.52
2022-08-22T08:28:36.188Z,59.34
2022-08-22T08:31:08.718Z,59.65
2022-08-22T08:33:38.951Z,59.35
2022-08-22T08:36:17.679Z,59.42
2022-08-22T08:38:48.194Z,59.48
2022-08-22T08:41:52.659Z,59.35
2022-08-22T08:44:28.282Z,59.55
2022-08-22T08:47:17.468Z,59.43
2022-08-22T08:49:58.305Z,59.66
2022-08-22T08:52:44.987Z,59.45
2022-08-22T08:55:24.253Z,59.63
2022-08-22T08:58:06.650Z,59.49
2022-08-22T09:00:52.618Z,59.58
2022-08-22T09:03:32.645Z,59.49
2022-08-22T09:06:23.550Z,59.53
2022-08-22T09:09:03.163Z,59.63
2022-08-22T09:12:07.495Z,59.70
2022-08-22T09:15:15.571Z,59.89
2022-08-22T09:18:22.323Z,59.80
2022-08-22T09:21:08.599Z,59.98
2022-08-22T09:23:53.365Z,59.96
2022-08-22T09:26:26.179Z,60.22
2022-08-22T09:28:56.242Z,59.82
2022-08-22T09:31:48.357Z,59.79
2022-08-22T09:34:34.097Z,59.98
2022-08-22T09:37:22.869Z,59.70
2022-08-22T09:40:00.104Z,59.86
2022-08-22T09:42:39.642Z,60.08
2022-08-22T09:45:49.932Z,59.96
2022-08-22T09:48:48.805Z,60.10
2022-08-22T09:51:31.468Z,59.84
2022-08-22T09:54:22.182Z,59.87
2022-08-22T09:57:04.278Z,60.01
2022-08-22T09:59:45.668Z,59.90
2022-08-22T10:02:21.158Z,59.73
2022-08-22T10:04:56.743Z,59.90
2022-08-22T10:07:40.032Z,59.73
2022-08-22T10:10:24.266Z,59.53
2022-08-22T10:12:56.257Z,60.18
2022-08-22T10:15:34.034Z,59.96
2022-08-22T10:18:10.770Z,60.33
2022-08-22T10:20:45.682Z,60.49
2022-08-22T10:23:18.508Z,59.96
2022-08-22T10:25:54.211Z,58.86
2022-08-22T10:28:35.491Z,58.54
2022-08-22T10:31:24.680Z,58.21
2022-08-22T10:34:02.466Z,57.78
2022-08-22T10:36:39.878Z,57.02
2022-08-22T10:39:11.625Z,56.84
2022-08-22T10:42:08.071Z,56.58
2022-08-22T10:44:40.050Z,56.70
2022-08-22T10:47:14.705Z,57.13
2022-08-22T10:49:47.497Z,56.90
2022-08-22T10:52:22.401Z,56.87
2022-08-22T10:54:52.741Z,56.81
2022-08-22T10:57:36.329Z,56.63
2022-08-22T11:00:09.725Z,56.23
2022-08-22T11:02:55.580Z,56.02
2022-08-22T11:05:50.265Z,55.76
2022-08-22T11:08:23.604Z,55.22
2022-08-22T11:11:05.333Z,55.75
2022-08-22T11:13:55.080Z,55.16
2022-08-22T11:16:31.000Z,55.28
2022-08-22T11:19:24.821Z,55.08
2022-08-22T11:22:00.501Z,55.24
2022-08-22T11:25:26.935Z,55.50
2022-08-22T11:28:32.536Z,55.29
2022-08-22T11:31:07.206Z,55.42
2022-08-22T11:33:47.097Z,55.55
2022-08-22T11:36:33.757Z,55.26
2022-08-22T11:39:13.706Z,55.32
2022-08-22T11:41:52.120Z,55.54
2022-08-22T11:44:22.080Z,55.12
2022-08-22T11:46:54.213Z,55.23
2022-08-22T11:49:28.183Z,55.51
2022-08-22T11:52:08.848Z,55.21
2022-08-22T11:54:44.244Z,54.95
2022-08-22T11:57:13.803Z,55.35
2022-08-22T12:00:01.330Z,55.01
2022-08-22T12:02:31.826Z,54.92
2022-08-22T12:05:06.393Z,54.73
2022-08-22T12:07:38.257Z,54.45
2022-08-22T12:10:08.056Z,54.00
2022-08-22T12:12:55.374Z,54.13
2022-08-22T12:15:24.683Z,54.12
2022-08-22T12:18:40.464Z,53.87
2022-08-22T12:21:46.830Z,53.77
2022-08-22T12:24:51.252Z,53.69
2022-08-22T12:27:48.058Z,53.26
2022-08-22T12:30:24.551Z,53.55
2022-08-22T12:33:23.188Z,53.22
2022-08-22T12:35:57.824Z,53.44
2022-08-22T12:38:44.890Z,52.99
2022-08-22T12:41:34.978Z,52.98
2022-08-22T12:44:16.409Z,52.66
2022-08-22T12:46:50.912Z,52.76
2022-08-22T12:49:27.133Z,52.49
2022-08-22T12:52:04.205Z,52.49
2022-08-22T12:54:53.583Z,52.16
2022-08-22T12:57:27.796Z,52.39
2022-08-22T12:59:58.282Z,52.03
2022-08-22T13:02:34.013Z,52.42
2022-08-22T13:05:09.427Z,52.04
2022-08-22T13:07:37.717Z,52.50
2022-08-22T13:10:38.768Z,52.32
2022-08-22T13:13:12.198Z,52.01
2022-08-22T13:15:42.575Z,52.11
2022-08-22T13:18:30.272Z,52.26
2022-08-22T13:20:59.622Z,51.90
2022-08-22T13:23:31.037Z,52.23
2022-08-22T13:26:08.936Z,51.90
2022-08-22T13:28:44.147Z,51.60
2022-08-22T13:31:20.836Z,51.68
2022-08-22T13:33:49.502Z,52.11
2022-08-22T13:36:19.220Z,52.11
2022-08-22T13:38:51.268Z,51.81
2022-08-22T13:41:22.592Z,52.13
2022-08-22T13:44:17.506Z,51.91
2022-08-22T13:47:13.259Z,51.93
2022-08-22T13:49:34.882Z,51.58
2022-08-22T13:52:14.560Z,51.58
2022-08-22T13:54:56.831Z,51.48
2022-08-22T13:57:27.447Z,51.60
2022-08-22T14:00:06.865Z,52.10
2022-08-22T14:02:43.274Z,51.83
2022-08-22T14:05:14.125Z,52.52
2022-08-22T14:07:46.595Z,52.47
2022-08-22T14:10:21.433Z,52.63
2022-08-22T14:13:07.245Z,52.58
2022-08-22T14:15:45.531Z,52.61
2022-08-22T14:18:16.844Z,52.55
2022-08-22T14:20:46.707Z,53.01
2022-08-22T14:23:19.064Z,52.03
2022-08-22T14:25:51.952Z,51.99
2022-08-22T14:28:22.975Z,51.74
2022-08-22T14:31:00.714Z,52.50
2022-08-22T14:33:32.453Z,52.55
2022-08-22T14:36:04.628Z,51.91
2022-08-22T14:38:36.691Z,50.46
2022-08-22T14:41:08.314Z,49.42
2022-08-22T14:43:52.665Z,49.65
2022-08-22T14:46:26.650Z,48.76
2022-08-22T14:49:25.289Z,47.99
2022-08-22T14:51:57.739Z,47.83
2022-08-22T14:54:29.103Z,48.72
2022-08-22T14:56:57.347Z,49.05
2022-08-22T14:59:33.632Z,49.98
2022-08-22T15:02:05.093Z,50.02
2022-08-22T15:04:35.753Z,50.95
2022-08-22T15:07:04.121Z,51.25
2022-08-22T15:09:33.735Z,51.83
2022-08-22T15:12:03.777Z,51.73
2022-08-22T15:14:43.798Z,51.16
2022-08-22T15:17:35.754Z,51.36
2022-08-22T15:20:14.037Z,51.74
2022-08-22T15:22:45.539Z,51.92
2022-08-22T15:25:16.327Z,51.95
2022-08-22T15:27:47.020Z,52.43
2022-08-22T15:30:21.257Z,52.04
2022-08-22T15:32:50.774Z,52.49
2022-08-22T15:35:39.228Z,52.53
2022-08-22T15:38:11.242Z,52.66
2022-08-22T15:40:42.020Z,53.06
2022-08-22T15:43:21.252Z,53.04
2022-08-22T15:45:49.865Z,53.09
2022-08-22T15:48:29.634Z,52.96
2022-08-22T15:50:59.597Z,53.17
2022-08-22T15:53:30.415Z,53.20
2022-08-22T15:56:29.652Z,53.37
2022-08-22T15:59:30.449Z,53.39
2022-08-22T16:02:24.187Z,53.72
2022-08-22T16:05:04.929Z,54.47
2022-08-22T16:07:39.989Z,54.83
2022-08-22T16:10:11.335Z,55.44
2022-08-22T16:12:40.963Z,55.55
2022-08-22T16:15:29.711Z,55.98
2022-08-22T16:17:59.824Z,56.14
2022-08-22T16:20:56.874Z,56.38
2022-08-22T16:23:25.009Z,56.21
2022-08-22T16:26:15.511Z,56.66
2022-08-22T16:28:58.851Z,57.25
2022-08-22T16:31:39.125Z,57.45
2022-08-22T16:34:23.517Z,57.83
2022-08-22T16:36:54.710Z,57.60
2022-08-22T16:39:40.126Z,57.66
2022-08-22T16:42:26.366Z,57.61
2022-08-22T16:44:57.923Z,57.95
2022-08-22T16:47:40.762Z,57.74
2022-08-22T16:50:11.864Z,57.86
2022-08-22T16:53:13.876Z,58.03
2022-08-22T16:56:03.945Z,57.94
2022-08-22T16:59:09.851Z,57.91
2022-08-22T17:02:08.428Z,58.01
2022-08-22T17:04:40.762Z,57.99
2022-08-22T17:07:15.779Z,58.49
2022-08-22T17:10:03.690Z,58.69
2022-08-22T17:12:39.479Z,58.92
2022-08-22T17:15:13.898Z,58.84
2022-08-22T17:17:50.877Z,58.90
2022-08-22T17:20:23.481Z,59.01
2022-08-22T17:22:54.400Z,59.15
2022-08-22T17:25:30.117Z,59.42
2022-08-22T17:28:09.434Z,59.34
2022-08-22T17:30:41.351Z,59.50
2022-08-22T17:33:17.111Z,59.60
2022-08-22T17:35:55.185Z,59.71
2022-08-22T17:38:28.417Z,59.73
2022-08-22T17:41:00.956Z,59.87
2022-08-22T17:43:48.422Z,60.16
2022-08-22T17:46:29.892Z,60.59
2022-08-22T17:49:00.974Z,60.69
2022-08-22T17:51:30.827Z,60.68
2022-08-22T17:54:01.896Z,60.90
2022-08-22T17:56:34.335Z,60.75
2022-08-22T17:59:05.910Z,60.85
2022-08-22T18:01:45.636Z,61.14
2022-08-22T18:04:19.289Z,61.15
2022-08-22T18:06:55.455Z,61.08
2022-08-22T18:09:29.853Z,60.98
2022-08-22T18:12:01.746Z,60.95
2022-08-22T18:14:32.385Z,61.18
2022-08-22T18:17:00.929Z,61.31
2022-08-22T18:19:39.912Z,61.17
2022-08-22T18:22:09.535Z,61.38
2022-08-22T18:24:41.148Z,61.39
2022-08-22T18:27:34.442Z,61.40
2022-08-22T18:30:08.026Z,61.25
2022-08-22T18:32:38.629Z,61.30
2022-08-22T18:35:14.330Z,61.27
2022-08-22T18:37:50.777Z,61.11
2022-08-22T18:40:31.220Z,61.14
2022-08-22T18:43:06.632Z,61.21
2022-08-22T18:46:03.323Z,60.90
2022-08-22T18:48:49.574Z,60.84
2022-08-22T18:51:27.922Z,60.84
2022-08-22T18:53:57.184Z,60.48
2022-08-22T18:56:41.640Z,60.37
2022-08-22T18:59:18.559Z,60.35
2022-08-22T19:01:52.276Z,60.28
2022-08-22T19:04:55.748Z,60.11
2022-08-22T19:07:52.972Z,60.11
2022-08-22T19:10:41.341Z,59.92
2022-08-22T19:13:19.033Z,59.89
2022-08-22T19:15:55.554Z,59.98
2022-08-22T19:18:36.375Z,59.96
2022-08-22T19:21:39.579Z,59.99
2022-08-22T19:24:09.345Z,60.13
2022-08-22T19:26:39.951Z,59.81
2022-08-22T19:29:24.396Z,59.60
2022-08-22T19:31:54.599Z,59.91
2022-08-22T19:34:40.765Z,59.78
2022-08-22T19:37:31.921Z,59.64
2022-08-22T19:40:02.855Z,59.68
2022-08-22T19:42:40.264Z,59.63
2022-08-22T19:45:29.285Z,59.70
2022-08-22T19:48:01.814Z,59.42
2022-08-22T19:50:35.329Z,59.39
2022-08-22T19:53:17.785Z,59.21
2022-08-22T19:55:56.038Z,59.21
2022-08-22T19:58:31.035Z,58.96
2022-08-22T20:01:06.276Z,59.15
2022-08-22T20:03:43.721Z,59.14
2022-08-22T20:06:33.674Z,59.13
2022-08-22T20:09:09.837Z,58.88
2022-08-22T20:11:42.362Z,58.94
2022-08-22T20:14:24.984Z,58.86
2022-08-22T20:17:08.059Z,58.97
2022-08-22T20:20:16.391Z,59.00
2022-08-22T20:22:36.439Z,59.03
2022-08-22T20:25:06.201Z,58.94
2022-08-22T20:27:46.005Z,58.85
2022-08-22T20:30:15.675Z,58.82
2022-08-22T20:32:45.320Z,58.94
2022-08-22T20:35:16.904Z,58.79
2022-08-22T20:38:05.839Z,58.90
2022-08-22T20:40:55.679Z,58.93
2022-08-22T20:43:29.552Z,58.99
2022-08-22T20:46:04.736Z,59.14
2022-08-22T20:48:34.793Z,58.96
2022-08-22T20:51:05.944Z,58.90
2022-08-22T20:53:34.174Z,58.80
2022-08-22T20:56:03.163Z,58.80
2022-08-22T20:58:41.611Z,58.89
2022-08-22T21:01:11.715Z,58.72
2022-08-22T21:03:42.160Z,58.67
2022-08-22T21:06:13.172Z,58.85
2022-08-22T21:08:41.376Z,58.67
2022-08-22T21:11:27.069Z,58.57
2022-08-22T21:13:55.786Z,58.69
2022-08-22T21:16:31.396Z,58.70
2022-08-22T21:19:01.647Z,58.61
2022-08-22T21:21:31.774Z,58.61
2022-08-22T21:24:01.853Z,58.90
2022-08-22T21:26:31.818Z,58.66
2022-08-22T21:29:01.416Z,58.54
2022-08-22T21:31:30.440Z,58.51
2022-08-22T21:33:58.489Z,58.55
2022-08-22T21:36:27.905Z,58.55
2022-08-22T21:38:58.393Z,58.53
2022-08-22T21:41:28.082Z,58.53
2022-08-22T21:43:56.060Z,58.54
2022-08-22T21:46:28.690Z,58.45
2022-08-22T21:48:59.992Z,58.43
2022-08-22T21:51:39.446Z,58.24
2022-08-22T21:54:40.836Z,58.42
2022-08-22T21:57:20.164Z,58.56
2022-08-22T21:59:51.607Z,58.45
2022-08-22T22:02:29.855Z,58.41
2022-08-22T22:04:59.488Z,58.48
2022-08-22T22:07:27.681Z,58.55
2022-08-22T22:09:57.204Z,58.40
2022-08-22T22:12:25.539Z,58.43
2022-08-22T22:14:53.612Z,58.46
2022-08-22T22:17:21.772Z,58.24
2022-08-22T22:19:49.845Z,58.46
2022-08-22T22:22:18.017Z,58.37
2022-08-22T22:24:46.099Z,58.46
2022-08-22T22:27:17.196Z,58.51
2022-08-22T22:29:45.359Z,58.52
2022-08-22T22:32:13.386Z,58.68
2022-08-22T22:34:41.544Z,58.46
2022-08-22T22:37:09.674Z,58.57
2022-08-22T22:39:38.667Z,58.49
2022-08-22T22:42:06.999Z,58.51
2022-08-22T22:44:36.430Z,58.44
2022-08-22T22:47:04.616Z,58.56
2022-08-22T22:49:33.480Z,58.45
2022-08-22T22:52:01.585Z,58.63
2022-08-22T22:54:29.780Z,58.54
2022-08-22T22:56:58.534Z,58.39
2022-08-22T22:59:26.818Z,58.35
2022-08-22T23:02:02.872Z,58.42
2022-08-22T23:04:31.062Z,58.42
2022-08-22T23:06:59.127Z,58.32
2022-08-22T23:09:38.064Z,58.18
2022-08-22T23:12:06.809Z,58.29
2022-08-22T23:14:35.105Z,58.15
2022-08-22T23:17:04.936Z,57.96
2022-08-22T23:19:33.011Z,58.20
2022-08-22T23:22:01.243Z,58.02
2022-08-22T23:24:29.616Z,58.09
2022-08-22T23:26:57.670Z,58.05
2022-08-22T23:29:25.798Z,58.06
2022-08-22T23:31:54.860Z,57.89
2022-08-22T23:34:26.960Z,57.90
2022-08-22T23:36:56.497Z,58.10
2022-08-22T23:39:24.857Z,57.88
2022-08-22T23:41:52.900Z,57.83
2022-08-22T23:44:22.470Z,57.75
2022-08-22T23:46:50.468Z,57.86
2022-08-22T23:49:19.006Z,57.95
2022-08-22T23:51:48.585Z,57.66
2022-08-22T23:54:16.896Z,57.76
2022-08-22T23:56:45.648Z,57.61
2022-08-22T23:59:17.980Z,57.58
